Flight Track Log - Related Links

Times and Time Zones

All times are in EDT time to prevent confusion due to time zone crossing. See the EJA929 flight status page for this flight to view local times or setup timezone preferences in your user account.

Time Position Orientation Groundspeed Altitude Reporting Facility
EDT Latitude Longitude Course Direction KTS MPH feet Rate Location/Type
Fri 00:56:34 37.4000 -121.9667 38° Northeast 188 216 3,200  Level Northern Cal TRACON
Fri 00:57:34 37.4333 -121.9333 38° Northeast 235 270 5,000 958 Climbing Northern Cal TRACON
Fri 00:58:33 37.3833 -121.8667 133° Southeast 231 266 5,100 821 Climbing Northern Cal TRACON
Fri 00:59:09 37.3608 -121.8389 136° Southeast 235 270 6,300 2,474 Climbing Oakland Center
Fri 01:00:10 37.3147 -121.7831 136° Southeast 242 278 9,100 2,311 Climbing Oakland Center
Fri 01:01:11 37.2819 -121.8447 236° Southwest 244 281 11,000 1,574 Climbing Oakland Center
Fri 01:02:12 37.3597 -121.8803 340° North 316 364 12,300 1,388 Climbing Oakland Center
Fri 01:03:12 37.4503 -121.8356 21° North 350 403 13,800 1,636 Climbing Oakland Center
Fri 01:04:13 37.5475 -121.7867 22° Northeast 373 429 15,600 1,525 Climbing Oakland Center
Fri 01:05:14 37.6442 -121.7383 22° Northeast 376 433 16,900 1,279 Climbing Oakland Center
Fri 01:06:15 37.7456 -121.6872 22° Northeast 391 450 18,200 1,475 Climbing Oakland Center
Fri 01:07:16 37.8719 -121.6250 21° North 407 468 19,900 1,525 Climbing Oakland Center
Fri 01:08:17 37.9753 -121.5589 27° Northeast 422 486 21,300 1,525 Climbing Oakland Center
Fri 01:09:18 38.0589 -121.4431 47° Northeast 447 514 23,000 1,623 Climbing Oakland Center
Fri 01:10:19 38.1439 -121.3250 48° Northeast 454 522 24,600 1,770 Climbing Oakland Center
Fri 01:11:20 38.2300 -121.2044 48° Northeast 464 534 26,600 1,672 Climbing Oakland Center
Fri 01:12:21 38.3178 -121.0819 48° Northeast 472 543 28,000 1,426 Climbing Oakland Center
Fri 01:13:22 38.4083 -120.9542 48° Northeast 489 563 29,500 1,438 Climbing Oakland Center
Fri 01:14:22 38.5003 -120.8247 48° Northeast 498 573 30,900 1,587 Climbing Oakland Center
Fri 01:15:23 38.5942 -120.6908 48° Northeast 506 582 32,700 1,770 Climbing Oakland Center
Fri 01:16:24 38.7072 -120.5300 48° Northeast 510 587 34,500 1,623 Climbing Oakland Center
Fri 01:17:25 38.8006 -120.3950 48° Northeast 508 585 36,000 1,475 Climbing Oakland Center
Fri 01:18:26 38.8947 -120.2608 48° Northeast 507 583 37,500 1,279 Climbing Oakland Center
Fri 01:19:27 38.9914 -120.1200 49° Northeast 502 578 38,600 984 Climbing Oakland Center
Fri 01:20:28 39.0775 -119.9961 48° Northeast 506 582 39,500 885 Climbing Oakland Center
Fri 01:21:29 39.1703 -119.8608 48° Northeast 503 579 40,400 744 Climbing Oakland Center
Fri 01:22:29 39.2553 -119.7197 52° Northeast 501 577 41,000 298 Climbing Oakland Center
Fri 01:23:30 39.2992 -119.5486 72° East 504 580 41,000  Level Oakland Center
Fri 01:24:31 39.3444 -119.3725 72° East 516 594 41,000  Level Oakland Center
Fri 01:25:32 39.3892 -119.1942 72° East 522 601 41,000  Level Oakland Center
Fri 01:26:33 39.4339 -119.0156 72° East 529 609 41,000  Level Oakland Center
Fri 01:27:34 39.4803 -118.8286 72° East 527 606 41,000  Level Oakland Center
Fri 01:28:35 39.5286 -118.6375 72° East 539 620 41,000  Level Oakland Center
Fri 01:29:36 39.5736 -118.4511 73° East 538 619 41,000  Level Oakland Center
Fri 01:30:36 39.6181 -118.2667 73° East 535 616 41,000  Level Oakland Center
Fri 01:31:37 39.6636 -118.0817 72° East 536 617 41,000  Level Oakland Center
Fri 01:32:38 39.7081 -117.8950 73° East 541 623 41,000  Level Oakland Center
Fri 01:33:39 39.7567 -117.6925 73° East 540 621 41,000  Level Oakland Center
Fri 01:34:40 39.7983 -117.5150 73° East 539 620 41,000  Level Oakland Center
Fri 01:35:41 39.8464 -117.3056 73° East 541 623 41,000  Level Oakland Center
Fri 01:35:58 39.8539 -117.2753 72° East 540 621 41,000  Level Salt Lake Center
Fri 01:36:59 39.9019 -117.0669 73° East 541 623 41,000  Level Salt Lake Center
Fri 01:37:43 39.9289 -116.9500 73° East 539 620 41,000  Level Oakland Center
Fri 01:38:44 39.9761 -116.7414 73° East 540 621 41,000  Level Oakland Center
Fri 01:39:00 39.9900 -116.6806 73° East 542 624 41,000  Level Salt Lake Center
Fri 01:39:45 40.0167 -116.5633 73° East 540 621 41,000  Level Oakland Center
Fri 01:40:45 40.0625 -116.3558 74° East 537 618 41,000  Level Oakland Center
Fri 01:41:01 40.0697 -116.3253 73° East 537 618 41,000  Level Salt Lake Center
Fri 01:42:02 40.1161 -116.1183 74° East 535 616 41,000  Level Salt Lake Center
Fri 01:43:03 40.1561 -115.9383 74° East 537 618 41,000  Level Salt Lake Center
Fri 01:44:04 40.1953 -115.7600 74° East 536 617 41,000  Level Salt Lake Center
Fri 01:45:04 40.2408 -115.5503 74° East 537 618 41,000  Level Salt Lake Center
Fri 01:46:05 40.2792 -115.3703 74° East 537 618 41,000  Level Salt Lake Center
Fri 01:47:06 40.3178 -115.1900 74° East 539 620 41,000  Level Salt Lake Center
Fri 01:48:06 40.3625 -114.9789 74° East 539 620 41,000  Level Salt Lake Center
Fri 01:49:07 40.4017 -114.7944 74° East 547 629 41,000  Level Salt Lake Center
Fri 01:50:08 40.4375 -114.6136 75° East 549 632 41,000  Level Salt Lake Center
Fri 01:51:08 40.4786 -114.4217 74° East 549 632 41,000  Level Salt Lake Center
Fri 01:52:09 40.5172 -114.2281 75° East 549 632 41,000  Level Salt Lake Center
Fri 01:53:10 40.5639 -113.9967 75° East 548 631 41,000  Level Salt Lake Center
Fri 01:54:10 40.6017 -113.8028 76° East 549 632 41,000  Level Salt Lake Center
Fri 01:55:11 40.6400 -113.6083 75° East 550 633 41,000  Level Salt Lake Center
Fri 01:56:12 40.6781 -113.4139 75° East 550 633 41,000  Level Salt Lake Center
Fri 01:57:12 40.7161 -113.2200 75° East 550 633 41,000  Level Salt Lake Center
Fri 01:58:13 40.7531 -113.0261 76° East 548 631 41,000  Level Salt Lake Center
Fri 01:59:14 40.7894 -112.8333 76° East 545 627 41,000  Level Salt Lake Center
Fri 02:00:14 40.8247 -112.6417 76° East 541 623 41,000  Level Salt Lake Center
Fri 02:01:15 40.8611 -112.4497 76° East 540 621 41,000  Level Salt Lake Center
Fri 02:02:15 40.8967 -112.2564 76° East 543 625 41,000  Level Salt Lake Center
Fri 02:03:16 40.9314 -112.0647 76° East 541 623 41,000  Level Salt Lake Center
Fri 02:04:16 40.9672 -111.8719 76° East 551 634 41,000  Level Salt Lake Center
Fri 02:05:17 41.0061 -111.6489 77° East 546 628 41,000 49 Level Salt Lake Center
Fri 02:06:18 41.0403 -111.4544 77° East 549 632 41,100  Climbing Salt Lake Center
Fri 02:07:18 41.0742 -111.2592 77° East 546 628 41,000 -50 Descending Salt Lake Center
Fri 02:08:19 41.1064 -111.0708 77° East 528 608 41,000  Level Salt Lake Center
Fri 02:09:19 41.1403 -110.8711 77° East 524 603 41,000  Level Salt Lake Center
Fri 02:10:20 41.1717 -110.6861 77° East 535 616 41,000  Level Salt Lake Center
Fri 02:11:20 41.2028 -110.5006 77° East 540 621 41,000  Level Salt Lake Center
Fri 02:12:21 41.2336 -110.3136 78° East 542 624 41,000  Level Salt Lake Center
Fri 02:13:22 41.2697 -110.0953 78° East 543 625 41,000  Level Salt Lake Center
Fri 02:14:22 41.2994 -109.9078 78° East 541 623 41,000  Level Salt Lake Center
Fri 02:15:23 41.3294 -109.7189 78° East 544 626 41,000  Level Salt Lake Center
Fri 02:16:23 41.3642 -109.4981 78° East 548 631 41,000  Level Salt Lake Center
Fri 02:17:24 41.3933 -109.3086 78° East 547 629 41,000  Level Salt Lake Center
Fri 02:18:24 41.4228 -109.1208 78° East 548 631 41,000  Level Salt Lake Center
Fri 02:19:25 41.4556 -108.9097 78° East 554 638 41,000  Level Salt Lake Center
Fri 02:20:26 41.4886 -108.6883 79° East 548 631 41,000  Level Salt Lake Center
Fri 02:21:26 41.5164 -108.5003 79° East 543 625 41,000  Level Salt Lake Center
Fri 02:22:27 41.5444 -108.3125 79° East 541 623 41,000  Level Salt Lake Center
Fri 02:23:27 41.5717 -108.1247 79° East 539 620 41,000  Level Salt Lake Center
Fri 02:24:28 41.6031 -107.9039 79° East 541 623 41,000  Level Salt Lake Center
Fri 02:25:28 41.6286 -107.7147 80° East 543 625 41,000  Level Salt Lake Center
Fri 02:26:29 41.6556 -107.5261 79° East 540 621 41,000  Level Salt Lake Center
Fri 02:27:29 41.6861 -107.3044 79° East 543 625 41,000  Level Salt Lake Center
Fri 02:28:30 41.7108 -107.1158 80° East 539 620 41,000  Level Salt Lake Center
Fri 02:28:53 41.7153 -107.0833 80° East 540 621 41,000  Level Denver Center
Fri 02:29:53 41.7486 -106.8325 80° East 537 618 41,000  Level Denver Center
Fri 02:30:53 41.7744 -106.6433 80° East 540 621 41,000  Level Denver Center
Fri 02:31:54 41.8008 -106.4422 80° East 537 618 41,000  Level Denver Center
Fri 02:32:54 41.8239 -106.2511 81° East 542 624 41,000  Level Denver Center
Fri 02:33:54 41.8514 -106.0297 80° East 541 623 41,000  Level Denver Center
Fri 02:34:55 41.8742 -105.8411 81° East 538 619 41,000  Level Denver Center
Fri 02:35:55 41.8975 -105.6533 80° East 536 617 41,000  Level Denver Center
Fri 02:36:55 41.9208 -105.4650 80° East 536 617 41,000  Level Denver Center
Fri 02:37:56 41.9472 -105.2467 81° East 533 613 41,000  Level Denver Center
Fri 02:38:56 41.9686 -105.0594 81° East 532 612 41,000  Level Denver Center
Fri 02:39:56 41.9894 -104.8728 81° East 531 611 41,000  Level Denver Center
Fri 02:40:56 42.0136 -104.6575 81° East 527 606 41,000  Level Denver Center
Fri 02:41:57 42.0350 -104.4700 81° East 531 611 41,000  Level Denver Center
Fri 02:43:00 42.0416 -104.2694 87° East  Level FlightAware Approximate
Fri 02:46:58 42.1394 -103.4808 83° East 525 604 41,000  Level Denver Center
Fri 02:47:59 42.1586 -103.2958 82° East 524 603 41,000  Level Denver Center
Fri 02:48:59 42.1764 -103.1097 83° East 525 604 41,000  Level Denver Center
Fri 02:49:59 42.1986 -102.8933 82° East 523 602 41,000  Level Denver Center
Fri 02:50:00 42.1514 -102.9338 82° East  Level FlightAware Approximate
Fri 02:51:00 42.1684 -102.7436 83° East  Level FlightAware Approximate
Fri 02:51:00 42.2158 -102.7069 83° East 525 604 41,000  Level Denver Center
Fri 02:52:00 42.1851 -102.5534 83° East  Level FlightAware Approximate
Fri 02:52:00 42.2333 -102.5208 83° East 525 604 41,000  Level Denver Center
Fri 02:53:00 42.2508 -102.3333 83° East 526 605 41,000  Level Denver Center
Fri 02:54:01 42.2683 -102.1367 83° East 525 604 41,000  Level Denver Center
Fri 02:55:01 42.2883 -101.9272 83° East 526 605 41,000  Level Denver Center
Fri 02:56:01 42.3039 -101.7297 84° East 526 605 41,000  Level Denver Center
Fri 02:57:02 42.3197 -101.5425 83° East 525 604 41,000  Level Denver Center
Fri 02:58:02 42.3383 -101.3239 83° East 523 602 41,000  Level Denver Center
Fri 02:59:02 42.3528 -101.1339 84° East 529 609 41,000  Level Denver Center
Fri 03:00:05 42.3681 -100.9453 84° East 528 608 41,000  Level Denver Center
Fri 03:01:05 42.3858 -100.7228 84° East 530 610 41,000  Level Denver Center
Fri 03:02:06 42.4000 -100.5308 84° East 533 613 41,000  Level Denver Center
Fri 03:03:06 42.4133 -100.3403 85° East 532 612 41,000  Level Denver Center
Fri 03:04:06 42.4286 -100.1494 84° East 533 613 41,000  Level Denver Center
Fri 03:04:38 42.4356 -100.0514 84° East 534 615 41,000  Level Minneapolis Center
Fri 03:05:07 42.4431 -99.9319 85° East 531 611 41,000  Level Denver Center
Fri 03:05:38 42.4494 -99.8506 84° East 536 617 41,000  Level Minneapolis Center
Fri 03:06:38 42.4633 -99.6511 85° East 532 612 41,000  Level Minneapolis Center
Fri 03:07:07 42.4711 -99.5294 85° East 534 615 41,000  Level Denver Center
Fri 03:08:08 42.4836 -99.3275 85° East 535 616 41,000  Level Denver Center
Fri 03:08:39 42.4894 -99.2483 84° East 535 616 41,000  Level Minneapolis Center
Fri 03:09:39 42.5017 -99.0447 85° East 539 620 41,000  Level Minneapolis Center
Fri 03:10:39 42.5153 -98.8417 85° East 540 621 41,000  Level Minneapolis Center
Fri 03:11:40 42.5267 -98.6369 86° East 542 624 41,000  Level Minneapolis Center
Fri 03:12:40 42.5383 -98.4339 85° East 539 620 41,000  Level Minneapolis Center
Fri 03:13:52 42.5497 -98.2314 86° East 539 620 41,000  Level Minneapolis Center
Fri 03:14:53 42.5619 -97.9906 86° East 535 616 41,000  Level Minneapolis Center
Fri 03:15:53 42.5739 -97.7750 86° East 532 612 41,000  Level Minneapolis Center
Fri 03:16:53 42.5831 -97.5769 86° East 527 606 41,000  Level Minneapolis Center
Fri 03:17:53 42.5928 -97.3775 86° East 529 609 41,000  Level Minneapolis Center
Fri 03:18:54 42.6019 -97.1789 86° East 528 608 41,000  Level Minneapolis Center
Fri 03:19:54 42.6106 -96.9794 87° East 529 609 41,000  Level Minneapolis Center
Fri 03:20:54 42.6194 -96.7797 86° East 528 608 41,000  Level Minneapolis Center
Fri 03:21:55 42.6278 -96.5786 87° East 532 612 41,000  Level Minneapolis Center
Fri 03:22:55 42.6356 -96.3808 87° East 526 605 41,000  Level Minneapolis Center
Fri 03:23:55 42.6425 -96.1883 87° East 513 590 41,000  Level Minneapolis Center
Fri 03:24:56 42.6500 -95.9967 87° East 510 587 41,000  Level Minneapolis Center
Fri 03:25:56 42.6564 -95.8019 87° East 512 589 41,000  Level Minneapolis Center
Fri 03:26:56 42.6628 -95.6017 87° East 523 602 41,000  Level Minneapolis Center
Fri 03:27:56 42.6694 -95.4025 87° East 527 606 41,000  Level Minneapolis Center
Fri 03:28:57 42.6747 -95.2056 88° East 523 602 41,000  Level Minneapolis Center
Fri 03:29:57 42.6794 -95.0067 88° East 525 604 41,000  Level Minneapolis Center
Fri 03:30:57 42.6853 -94.8067 88° East 526 605 41,000  Level Minneapolis Center
Fri 03:31:58 42.6889 -94.6031 89° East 535 616 41,000  Level Minneapolis Center
Fri 03:32:58 42.6939 -94.4039 88° East 541 623 41,000  Level Minneapolis Center
Fri 03:33:58 42.6972 -94.2042 89° East 538 619 41,000  Level Minneapolis Center
Fri 03:34:59 42.7011 -94.0033 88° East 538 619 41,000  Level Minneapolis Center
Fri 03:35:59 42.7047 -93.8053 89° East 532 612 41,000  Level Minneapolis Center
Fri 03:36:59 42.7078 -93.6067 89° East 531 611 41,000  Level Minneapolis Center
Fri 03:37:59 42.7111 -93.4078 89° East 532 612 41,000  Level Minneapolis Center
Fri 03:39:00 42.7128 -93.2064 89° East 537 618 41,000  Level Minneapolis Center
Fri 03:40:00 42.7153 -93.0078 89° East 533 613 41,000  Level Minneapolis Center
Fri 03:41:00 42.7169 -92.8058 89° East 538 619 41,000  Level Minneapolis Center
Fri 03:42:01 42.7194 -92.5647 89° East 537 618 41,000  Level Minneapolis Center
Fri 03:43:01 42.7197 -92.3619 90° East 541 623 41,000  Level Minneapolis Center
Fri 03:44:01 42.7211 -92.1992 89° East 542 624 41,000  Level Minneapolis Center
Fri 03:45:02 42.7217 -91.9603 90° East 537 618 41,000  Level Minneapolis Center
Fri 03:46:02 42.7214 -91.8042 90° East 530 610 41,000  Level Minneapolis Center
Fri 03:47:02 42.7217 -91.5811 90° East 527 606 41,000  Level Minneapolis Center
Fri 03:48:03 42.7200 -91.3733 91° East 537 618 41,000  Level Minneapolis Center
Fri 03:48:58 42.7194 -91.1708 90° East 552 635 41,000  Level Chicago Center
Fri 03:50:01 42.7181 -90.9650 90° East 551 634 41,000  Level Chicago Center
Fri 03:51:01 42.7169 -90.7564 90° East 558 642 41,000  Level Chicago Center
Fri 03:52:00 42.7144 -90.5472 91° East 561 646 41,000  Level Chicago Center
Fri 03:53:02 42.7111 -90.3389 91° East 558 642 41,000  Level Chicago Center
Fri 03:54:02 42.7081 -90.1292 91° East 560 644 41,000  Level Chicago Center
Fri 03:55:03 42.7047 -89.9114 91° East 562 647 41,000  Level Chicago Center
Fri 03:56:00 42.6994 -89.6664 92° East 560 644 41,000  Level Chicago Center
Fri 03:57:00 42.6958 -89.4556 91° East 561 646 41,000  Level Chicago Center
Fri 03:58:04 42.6917 -89.2453 91° East 560 644 41,000  Level Chicago Center
Fri 03:59:04 42.6869 -89.0358 92° East 559 643 41,000  Level Chicago Center
Fri 04:00:04 42.6814 -88.8272 92° East 556 640 41,000  Level Chicago Center
Fri 04:01:04 42.6761 -88.6167 92° East 559 643 41,000  Level Chicago Center
Fri 04:02:02 42.6703 -88.4061 92° East 561 646 41,000  Level Chicago Center
Fri 04:03:05 42.6642 -88.1964 92° East 560 644 41,000  Level Chicago Center
Fri 04:04:05 42.6578 -87.9853 92° East 559 643 41,000  Level Chicago Center
Fri 04:05:05 42.6500 -87.7756 93° East 560 644 41,000  Level Chicago Center
Fri 04:06:03 42.6425 -87.5631 93° East 562 647 41,000 202 Level Chicago Center
Fri 04:07:04 42.6344 -87.3656 93° East 564 649 41,400 645 Climbing Chicago Center
Fri 04:08:04 42.6264 -87.1606 93° East 550 633 42,300 800 Climbing Chicago Center
Fri 04:09:04 42.6186 -86.9631 93° East 531 611 43,000 344 Climbing Chicago Center
Fri 04:10:06 42.6094 -86.7658 94° East 528 608 43,000  Level Chicago Center
Fri 04:11:07 42.6017 -86.5672 93° East 531 611 43,000  Level Chicago Center
Fri 04:12:08 42.5917 -86.3694 94° East 532 612 43,000  Level Chicago Center
Fri 04:13:08 42.5817 -86.1708 94° East 532 612 43,000  Level Chicago Center
Fri 04:14:06 42.5714 -85.9714 94° East 536 617 43,000  Level Chicago Center
Fri 04:15:08 42.5589 -85.7303 94° East 539 620 43,000  Level Chicago Center
Fri 04:16:08 42.5478 -85.5289 94° East 541 623 43,000  Level Chicago Center
Fri 04:17:09 42.5375 -85.3258 94° East 542 624 43,000  Level Chicago Center
Fri 04:18:07 42.5256 -85.1233 95° East 543 625 43,000  Level Chicago Center
Fri 04:19:09 42.5131 -84.9222 95° East 541 623 43,000  Level Chicago Center
Fri 04:20:08 42.5008 -84.7183 95° East 544 626 43,000  Level Chicago Center
Fri 04:21:10 42.4886 -84.5164 95° East 542 624 43,000  Level Chicago Center
Fri 04:21:32 42.4828 -84.4492 97° East 539 620 43,000  Level Cleveland Center
Fri 04:22:32 42.4686 -84.2456 95° East 539 620 43,000  Level Cleveland Center
Fri 04:23:32 42.4542 -84.0392 95° East 539 620 43,000  Level Cleveland Center
Fri 04:24:32 42.4414 -83.8358 95° East 539 620 43,000  Level Cleveland Center
Fri 04:25:32 42.4300 -83.6356 94° East 544 626 43,000  Level Cleveland Center
Fri 04:26:32 42.4089 -83.4067 97° East 552 635 43,000  Level Cleveland Center
Fri 04:27:32 42.3967 -83.2178 95° East 559 643 43,000  Level Cleveland Center
Fri 04:28:32 42.3803 -83.0117 96° East 559 643 43,000  Level Cleveland Center
Fri 04:29:32 42.3619 -82.7864 96° East 554 638 43,000  Level Cleveland Center
Fri 04:30:32 42.3450 -82.5806 96° East 554 638 43,000  Level Cleveland Center
Fri 04:31:32 42.3317 -82.3750 95° East 559 643 43,000  Level Cleveland Center
Fri 04:32:32 42.3117 -82.1694 97° East 559 643 43,000  Level Cleveland Center
Fri 04:33:32 42.2953 -81.9839 97° East 559 643 43,000  Level Cleveland Center
Fri 04:34:32 42.2769 -81.7758 97° East 559 643 43,000  Level Cleveland Center
Fri 04:35:32 42.2600 -81.5678 96° East 559 643 43,000  Level Cleveland Center
Fri 04:36:32 42.2408 -81.3656 97° East 559 643 43,000  Level Cleveland Center
Fri 04:37:32 42.2214 -81.1356 96° East 559 643 43,000  Level Cleveland Center
Fri 04:38:32 42.2011 -80.9308 98° East 559 643 43,000  Level Cleveland Center
Fri 04:39:32 42.1828 -80.7261 97° East 556 640 43,000  Level Cleveland Center
Fri 04:40:32 42.1622 -80.5189 98° East 556 640 43,000  Level Cleveland Center
Fri 04:41:32 42.1389 -80.3089 98° East 563 648 43,000  Level Cleveland Center
Fri 04:42:32 42.1175 -80.1017 98° East 558 642 43,000  Level Cleveland Center
Fri 04:43:32 42.0975 -79.8975 97° East 558 642 43,000  Level Cleveland Center
Fri 04:44:32 42.0753 -79.6881 98° East 558 642 43,000  Level Cleveland Center
Fri 04:45:32 42.0547 -79.4814 98° East 558 642 43,000  Level Cleveland Center
Fri 04:46:32 42.0297 -79.2750 99° East 558 642 43,000  Level Cleveland Center
Fri 04:47:32 42.0064 -79.0658 98° East 558 642 43,000  Level Cleveland Center
Fri 04:48:32 41.9847 -78.8625 98° East 558 642 43,000  Level Cleveland Center
Fri 04:49:32 41.9606 -78.6536 99° East 558 642 43,000  Level Cleveland Center
Fri 04:50:32 41.9278 -78.4481 102° East 558 642 43,000 -350 Level Cleveland Center
Fri 04:51:32 41.8967 -78.2428 101° East 558 642 42,300 -1,720 Descending Cleveland Center
Fri 04:52:55 41.8578 -77.9978 102° East 534 615 38,900 -2,704 Descending New York Center
Fri 04:53:54 41.8219 -77.7933 103° East 545 627 35,900 -2,974 Descending New York Center
Fri 04:54:52 41.7883 -77.5867 102° East 557 641 33,100 -1,462 Descending New York Center
Fri 04:55:53 41.7394 -77.3814 108° East 568 654 33,000 -439 Descending New York Center
Fri 04:56:55 41.6858 -77.1789 109° East 575 662 32,200 -1,140 Descending New York Center
Fri 04:57:54 41.6322 -76.9767 109° East 575 662 30,700 -1,538 Descending New York Center
Fri 04:58:52 41.5739 -76.7744 111° Southeast 580 667 29,200 -1,750 Descending New York Center
Fri 04:59:54 41.5211 -76.5756 109° East 580 667 27,200 -1,983 Descending New York Center
Fri 05:00:53 41.4644 -76.3658 110° East 568 654 25,200 -2,085 Descending New York Center
Fri 05:01:52 41.4111 -76.1733 110° East 561 646 23,100 -2,000 Descending New York Center
Fri 05:02:53 41.3586 -75.9922 111° Southeast 542 624 21,200 -1,884 Descending New York Center
Fri 05:03:53 41.3103 -75.8144 110° East 529 609 19,300 -1,966 Descending New York Center
Fri 05:04:52 41.2569 -75.6422 112° Southeast 519 597 17,300 -2,300 Descending New York Center
Fri 05:05:53 41.2050 -75.4839 114° Southeast 484 557 14,700 -2,459 Descending New York Center
Fri 05:06:54 41.1567 -75.3400 114° Southeast 451 519 12,300 -2,200 Descending New York Center
Fri 05:07:53 41.1208 -75.2356 114° Southeast 410 472 10,300 -2,250 Descending New York Center
Fri 05:08:54 41.0758 -75.1033 114° Southeast 354 407 7,800 -2,118 Descending New York Center
Fri 05:09:52 41.0403 -74.9964 114° Southeast 322 371 6,100 -958 Descending New York Center
Fri 05:10:53 40.9981 -74.8950 119° Southeast 316 364 5,900 -885 Descending New York Center
Fri 05:11:54 40.9533 -74.7961 121° Southeast 321 369 4,300 -1,000 Descending New York Center
Fri 05:12:53 40.9147 -74.7114 121° Southeast 313 360 3,900 -202 Descending New York Center
Fri 05:13:53 40.8700 -74.6100 120° Southeast 302 348 3,900  Level New York Center
Fri 05:14:53 40.8272 -74.5200 122° Southeast 302 348 3,900 -347 Level New York Center
Fri 05:15:54 40.7939 -74.4467 121° Southeast 257 296 3,200 -555 Descending New York Center
Fri 05:16:52 40.7669 -74.3822 119° Southeast 234 269 2,800 -629 Descending New York Center
Fri 05:17:58 40.7333 -74.3000 118° Southeast 211 243 1,900 -524 Descending New York TRACON
Fri 05:18:58 40.7333 -74.2333 90° East 192 221 1,700 -250 Descending New York TRACON
Fri 05:19:58 40.7667 -74.1833 49° Northeast 187 215 1,400 -200 Descending New York TRACON
Fri 05:20:58 40.8000 -74.1333 49° Northeast 159 183 1,300 -400 Descending New York TRACON
Fri 05:21:58 40.8333 -74.1000 37° Northeast 124 143 600 1,611 Descending New York TRACON
Fri 05:23:53 40.8664 -74.0419 53° Northeast 127 146 6,000 2,817 Climbing New York Center
Fri 05:25:00 40.8500 -74.0500 270° West  Level FlightAware Approximate

Login

Don't have an account? Register now (free) for customized features, flight alerts, and more!